Time;durP1;ratioP1;P1;durP2;ratioP2;P2;SDS_P1;SDS_P2;PMS_P1;PMS_P2;Temp;Humidity;BMP_temperature;BMP_pressure;BME280_temperature;BME280_humidity;BME280_pressure;Samples;Min_cycle;Max_cycle;Signal;HPM_P1;HPM_P2
2022/10/07 00:01:21;;;;;;;7.20;3.40;;;;;;;10.93;62.45;95012.25;5146826;27;20085;-74
2022/10/07 00:03:46;;;;;;;6.50;2.75;;;;;;;10.86;62.68;95015.28;5146808;27;20194;-74
2022/10/07 00:06:15;;;;;;;10.35;3.65;;;;;;;10.78;63.00;95005.25;5128479;27;20031;-74
2022/10/07 00:08:46;;;;;;;5.70;3.15;;;;;;;10.73;63.49;95013.34;5146580;27;20082;-75
2022/10/07 00:11:14;;;;;;;5.57;2.70;;;;;;;10.69;63.82;95010.44;5146421;27;20012;-74
2022/10/07 00:13:42;;;;;;;9.27;2.83;;;;;;;10.66;64.09;95007.53;5146530;27;20031;-74
2022/10/07 00:16:13;;;;;;;18.23;3.42;;;;;;;10.59;64.24;95014.00;5146633;27;20027;-74
2022/10/07 00:18:40;;;;;;;17.67;3.35;;;;;;;10.53;64.71;95014.38;5145383;27;20091;-75
2022/10/07 00:21:07;;;;;;;8.27;2.92;;;;;;;10.50;65.19;95001.59;5146298;27;20244;-74
2022/10/07 00:23:33;;;;;;;6.72;2.88;;;;;;;10.51;65.40;94995.97;5146309;27;20030;-74
2022/10/07 00:26:04;;;;;;;8.15;3.03;;;;;;;10.52;65.71;94996.75;5146357;27;20031;-74
2022/10/07 00:28:30;;;;;;;8.05;2.95;;;;;;;10.52;66.08;94992.25;5145981;27;20049;-74
2022/10/07 00:30:59;;;;;;;10.00;3.13;;;;;;;10.47;66.30;94997.63;5146606;27;20031;-74
2022/10/07 00:33:25;;;;;;;6.55;2.80;;;;;;;10.49;66.52;95002.69;5146339;27;20050;-74
2022/10/07 00:35:51;;;;;;;7.88;2.83;;;;;;;10.51;66.82;94995.19;5146071;27;20018;-74
2022/10/07 00:38:16;;;;;;;18.50;3.20;;;;;;;10.52;66.83;94986.91;5146035;27;20046;-74
2022/10/07 00:40:42;;;;;;;5.15;3.00;;;;;;;10.51;66.85;94985.31;5146096;27;20418;-75
2022/10/07 00:43:20;;;;;;;5.55;2.83;;;;;;;10.49;66.87;94989.34;5146063;27;20035;-75
2022/10/07 00:45:46;;;;;;;8.18;3.03;;;;;;;10.41;67.24;94983.56;5146083;27;20015;-75
2022/10/07 00:48:11;;;;;;;5.15;2.75;;;;;;;10.34;67.23;94991.13;5145702;27;20048;-75
2022/10/07 00:50:37;;;;;;;8.70;2.90;;;;;;;10.26;67.69;94983.72;5145880;27;20075;-75
2022/10/07 00:53:03;;;;;;;5.00;2.95;;;;;;;10.24;67.74;94976.00;5145777;27;20023;-74
2022/10/07 00:55:30;;;;;;;6.45;2.97;;;;;;;10.22;67.83;94975.47;5145837;27;20019;-75
2022/10/07 00:58:00;;;;;;;6.88;3.25;;;;;;;10.24;67.87;94981.31;5145871;27;20015;-75
2022/10/07 01:00:26;;;;;;;6.00;2.70;;;;;;;10.20;67.94;94974.97;5145883;27;20361;-74
2022/10/07 01:02:51;;;;;;;7.80;3.28;;;;;;;10.17;68.16;94980.84;5145544;27;20023;-74
2022/10/07 01:05:17;;;;;;;8.15;2.55;;;;;;;10.13;68.05;94971.06;5145485;27;20059;-74
2022/10/07 01:07:46;;;;;;;7.00;2.90;;;;;;;10.12;68.40;94978.25;5145377;27;20050;-74
2022/10/07 01:10:15;;;;;;;11.45;3.03;;;;;;;10.06;68.25;94979.38;5145524;27;20061;-74
2022/10/07 01:13:13;;;;;;;8.68;3.30;;;;;;;10.07;68.61;94974.84;5145376;27;20049;-74
2022/10/07 01:16:01;;;;;;;8.90;3.22;;;;;;;10.00;68.72;94988.50;5145376;27;20263;-75
2022/10/07 01:18:39;;;;;;;6.57;3.33;;;;;;;9.95;68.82;94977.88;5145506;27;20076;-74
2022/10/07 01:21:24;;;;;;;11.27;4.05;;;;;;;9.94;68.82;94977.09;5145337;27;20027;-75
2022/10/07 01:23:55;;;;;;;8.10;3.55;;;;;;;9.93;69.02;94974.72;5145088;27;20343;-74
2022/10/07 01:26:24;;;;;;;7.45;3.90;;;;;;;9.92;68.92;94973.91;5145129;27;20023;-74
2022/10/07 01:28:58;;;;;;;7.68;3.85;;;;;;;9.91;69.12;94974.19;5144634;27;20352;-73
2022/10/07 01:31:31;;;;;;;8.70;3.50;;;;;;;9.92;69.34;94978.47;5145198;27;20221;-74
2022/10/07 01:33:56;;;;;;;6.80;3.83;;;;;;;9.88;69.42;94969.44;5145005;27;20023;-73
2022/10/07 01:36:23;;;;;;;8.10;3.15;;;;;;;9.81;69.55;94973.22;5145054;27;20094;-73
2022/10/07 01:39:01;;;;;;;9.40;3.33;;;;;;;9.79;69.66;94970.06;5144767;27;20027;-74
2022/10/07 01:41:28;;;;;;;6.53;3.00;;;;;;;9.76;69.82;94975.91;5144933;27;20019;-74
2022/10/07 01:43:55;;;;;;;6.93;3.28;;;;;;;9.78;69.98;94973.78;5144926;27;20038;-74
2022/10/07 01:46:23;;;;;;;6.30;2.63;;;;;;;9.79;69.99;94970.06;5144797;27;20023;-74
2022/10/07 01:48:50;;;;;;;9.30;2.80;;;;;;;9.80;69.95;94976.16;5144730;27;20246;-74
2022/10/07 01:51:17;;;;;;;6.10;2.55;;;;;;;9.74;70.23;94975.41;5144499;27;20225;-74
2022/10/07 01:54:01;;;;;;;6.13;2.53;;;;;;;9.75;70.35;94969.03;5144554;27;20019;-74
2022/10/07 01:57:04;;;;;;;6.18;2.85;;;;;;;9.72;70.33;94958.13;5144569;27;20030;-73
2022/10/07 01:59:38;;;;;;;;;;;;;;;9.72;69.98;94968.78;5144956;27;20035;-73
2022/10/07 02:02:17;;;;;;;3.08;1.70;;;;;;;9.64;69.78;94967.50;5144490;27;19912;-74
2022/10/07 02:05:08;;;;;;;5.22;1.88;;;;;;;9.65;68.97;94961.13;5144306;27;20030;-74
2022/10/07 02:07:50;;;;;;;8.65;1.98;;;;;;;9.64;68.78;94962.19;5140204;27;20031;-74
2022/10/07 02:10:25;;;;;;;9.13;2.22;;;;;;;9.64;68.63;94957.66;5144255;27;20027;-74
2022/10/07 02:13:05;;;;;;;3.88;2.20;;;;;;;9.65;68.51;94953.16;5144333;27;20213;-74
2022/10/07 02:16:10;;;;;;;5.85;2.00;;;;;;;9.66;68.22;94960.03;5144276;27;20019;-74
2022/10/07 02:18:38;;;;;;;7.47;1.83;;;;;;;9.71;67.79;94961.84;5061167;28;20036;-74
2022/10/07 02:21:07;;;;;;;8.10;2.10;;;;;;;9.71;68.04;94968.00;5130850;27;20027;-75
2022/10/07 02:23:33;;;;;;;3.55;1.95;;;;;;;9.71;67.88;94969.84;5144046;27;20027;-74
2022/10/07 02:26:01;;;;;;;4.10;1.80;;;;;;;9.72;67.83;94980.22;5144100;27;20019;-74
2022/10/07 02:28:29;;;;;;;3.95;2.03;;;;;;;9.71;68.00;94975.97;5144134;27;20090;-74
2022/10/07 02:31:00;;;;;;;3.95;2.20;;;;;;;9.72;67.88;94980.22;5144054;27;20102;-74
2022/10/07 02:33:29;;;;;;;5.28;2.75;;;;;;;9.71;68.02;94983.16;5144088;27;20315;-75
2022/10/07 02:35:59;;;;;;;3.65;2.00;;;;;;;9.72;67.90;94990.88;5144021;27;20023;-74
2022/10/07 02:38:25;;;;;;;6.22;1.92;;;;;;;9.71;68.14;94978.66;5143943;27;20320;-74
2022/10/07 02:41:09;;;;;;;6.22;2.45;;;;;;;9.65;68.38;94985.09;5143291;27;20019;-74
2022/10/07 02:43:40;;;;;;;7.03;2.08;;;;;;;9.62;68.45;94978.44;5143637;27;20023;-74
2022/10/07 02:46:19;;;;;;;6.30;2.60;;;;;;;9.56;68.82;94981.41;5143759;28;20320;-74
2022/10/07 02:48:56;;;;;;;7.32;2.40;;;;;;;9.56;69.20;94984.09;5143737;27;20080;-74
2022/10/07 02:51:30;;;;;;;14.35;3.55;;;;;;;9.48;69.62;94979.34;5143721;28;20061;-74
2022/10/07 02:53:56;;;;;;;8.27;2.85;;;;;;;9.42;70.11;94982.06;5143929;28;20062;-75
2022/10/07 02:56:24;;;;;;;5.72;2.80;;;;;;;9.37;70.20;94984.75;5143464;28;20019;-74
2022/10/07 02:58:52;;;;;;;9.57;3.28;;;;;;;9.35;70.37;94980.78;5143855;28;20250;-74
2022/10/07 03:01:21;;;;;;;7.40;3.10;;;;;;;9.34;70.48;94979.19;5143715;28;20084;-74
2022/10/07 03:03:47;;;;;;;5.45;3.15;;;;;;;9.33;70.61;94970.44;5143753;28;20054;-74
2022/10/07 03:06:13;;;;;;;8.80;3.15;;;;;;;9.27;70.90;94981.38;5143481;28;20309;-74
2022/10/07 03:08:41;;;;;;;6.50;3.35;;;;;;;9.19;71.14;94983.53;5143632;28;20301;-75
2022/10/07 03:11:06;;;;;;;9.20;3.55;;;;;;;9.20;70.80;94979.03;5143288;27;20076;-73
2022/10/07 03:13:34;;;;;;;7.38;3.22;;;;;;;9.20;71.10;94984.38;5143756;27;20262;-73
2022/10/07 03:15:59;;;;;;;6.63;3.20;;;;;;;9.17;71.17;94980.38;5143700;28;20057;-73
2022/10/07 03:18:25;;;;;;;9.05;4.43;;;;;;;9.19;71.31;94977.44;5143436;27;20309;-73
2022/10/07 03:20:52;;;;;;;5.72;3.65;;;;;;;9.17;71.52;94968.94;5125291;28;20027;-73
2022/10/07 03:23:18;;;;;;;6.25;3.60;;;;;;;9.16;71.67;94972.66;5143437;28;20042;-73
2022/10/07 03:25:50;;;;;;;10.43;3.80;;;;;;;9.14;71.67;94972.13;5143258;28;20241;-73
2022/10/07 03:28:18;;;;;;;9.73;3.83;;;;;;;9.14;71.65;94974.81;5143378;28;20084;-73
2022/10/07 03:30:43;;;;;;;9.95;3.67;;;;;;;9.15;71.74;94977.19;5143187;27;20046;-74
2022/10/07 03:33:08;;;;;;;5.97;3.60;;;;;;;9.14;71.85;94966.81;5143139;27;20094;-72
2022/10/07 03:35:34;;;;;;;7.82;3.58;;;;;;;9.11;72.45;94983.34;5143327;27;20058;-73
2022/10/07 03:37:59;;;;;;;12.15;3.92;;;;;;;9.12;72.69;94971.63;5143241;28;20050;-74
2022/10/07 03:40:25;;;;;;;11.93;4.03;;;;;;;9.15;73.15;94965.75;5143373;28;20060;-74
2022/10/07 03:42:50;;;;;;;8.57;4.43;;;;;;;9.06;73.28;94970.06;5143300;28;20092;-74
2022/10/07 03:45:16;;;;;;;11.45;4.28;;;;;;;8.88;74.40;94972.31;5143408;28;20224;-73
2022/10/07 03:47:41;;;;;;;12.27;5.20;;;;;;;8.94;74.68;94963.25;5142981;28;20370;-73
2022/10/07 03:50:07;;;;;;;6.85;4.03;;;;;;;8.99;73.69;94970.38;5143038;27;20023;-73
2022/10/07 03:52:35;;;;;;;11.23;4.68;;;;;;;9.00;73.64;94979.97;5145529;27;20217;-73
2022/10/07 03:55:01;;;;;;;13.25;4.68;;;;;;;9.06;73.68;94970.88;5146795;27;20026;-74
2022/10/07 04:00:11;;;;;;;9.85;4.60;;;;;;;9.13;73.80;94962.59;5146878;27;20225;-73
2022/10/07 04:02:36;;;;;;;8.52;4.57;;;;;;;9.13;73.87;94971.34;5146592;27;20038;-73
2022/10/07 04:05:02;;;;;;;12.25;4.15;;;;;;;9.14;73.95;94982.78;5146662;27;20209;-73
2022/10/07 04:07:27;;;;;;;12.10;4.93;;;;;;;9.13;73.90;94979.34;5146818;27;20094;-73
2022/10/07 04:09:53;;;;;;;12.23;4.88;;;;;;;9.17;74.01;94982.25;5146916;27;20023;-73
2022/10/07 04:12:18;;;;;;;7.57;4.13;;;;;;;9.20;73.62;94976.38;5146412;27;20019;-73
2022/10/07 04:14:44;;;;;;;10.48;4.00;;;;;;;9.20;73.34;94979.03;5146385;27;20152;-74
2022/10/07 04:17:09;;;;;;;10.15;3.78;;;;;;;9.18;73.33;94975.84;5146557;27;20333;-74
2022/10/07 04:19:35;;;;;;;9.13;4.22;;;;;;;9.22;73.30;94977.69;5146443;27;20030;-73
2022/10/07 04:22:00;;;;;;;10.93;3.85;;;;;;;9.22;73.20;94972.38;5146449;27;20094;-74
2022/10/07 04:24:25;;;;;;;9.00;3.83;;;;;;;9.21;73.12;94980.63;5146467;27;20015;-75
2022/10/07 04:26:51;;;;;;;9.07;4.47;;;;;;;9.21;73.09;94969.97;5127914;27;20358;-74
2022/10/07 04:29:16;;;;;;;6.50;3.88;;;;;;;9.21;72.90;94973.44;5145863;27;20262;-74
2022/10/07 04:31:42;;;;;;;9.82;3.75;;;;;;;9.21;73.27;94980.63;5146153;27;20023;-74
2022/10/07 04:34:07;;;;;;;8.68;4.22;;;;;;;9.19;73.19;94956.94;5146197;27;20090;-74
2022/10/07 04:36:33;;;;;;;7.00;3.92;;;;;;;9.18;73.10;94971.34;5145931;27;20027;-73
2022/10/07 04:38:58;;;;;;;11.50;4.35;;;;;;;9.19;72.85;94966.81;5146261;27;20023;-74
2022/10/07 04:41:24;;;;;;;8.43;4.35;;;;;;;9.23;73.04;94968.63;5146382;27;20072;-75
2022/10/07 04:43:50;;;;;;;13.52;3.78;;;;;;;9.28;72.84;94975.78;5145968;27;20035;-74
2022/10/07 04:46:16;;;;;;;11.00;3.85;;;;;;;9.27;72.94;94974.19;5145942;27;20228;-74
2022/10/07 04:48:44;;;;;;;8.52;4.38;;;;;;;9.31;73.10;94967.25;5146059;27;20023;-74
2022/10/07 04:51:11;;;;;;;19.83;4.03;;;;;;;9.33;73.38;94973.09;5145686;27;20045;-75
2022/10/07 04:53:37;;;;;;;5.32;3.35;;;;;;;9.35;73.27;94965.63;5146440;27;20250;-74
2022/10/07 04:56:04;;;;;;;12.82;3.78;;;;;;;9.41;73.59;94966.38;5146333;27;20015;-75
2022/10/07 04:58:31;;;;;;;7.88;3.95;;;;;;;9.46;73.30;94965.53;5127595;27;20023;-74
2022/10/07 05:00:58;;;;;;;7.45;4.18;;;;;;;9.49;73.16;94968.44;5145687;27;20068;-75
2022/10/07 05:03:26;;;;;;;9.80;3.28;;;;;;;9.55;73.18;94969.19;5145163;27;20038;-73
2022/10/07 05:05:53;;;;;;;11.65;4.72;;;;;;;9.57;73.10;94973.16;5145818;27;20108;-74
2022/10/07 05:08:21;;;;;;;10.13;4.50;;;;;;;9.62;72.78;94974.97;5145482;27;20247;-74
2022/10/07 05:10:53;;;;;;;12.85;5.03;;;;;;;9.67;73.05;94977.63;5145336;27;20033;-74
2022/10/07 05:13:18;;;;;;;7.13;4.45;;;;;;;9.75;72.68;94982.34;5145623;27;20023;-75
2022/10/07 05:15:58;;;;;;;9.70;4.40;;;;;;;9.85;72.75;94986.78;5145652;27;20030;-74
2022/10/07 05:18:25;;;;;;;10.52;4.38;;;;;;;9.81;72.76;94991.88;5145768;27;20015;-74
2022/10/07 05:20:51;;;;;;;16.77;7.28;;;;;;;9.89;72.54;95001.13;5145303;27;20191;-73
2022/10/07 05:23:19;;;;;;;13.63;4.95;;;;;;;9.99;72.08;95005.53;5145361;27;20026;-74
2022/10/07 05:25:45;;;;;;;8.55;3.70;;;;;;;10.03;71.67;95004.72;5145472;27;20026;-75
2022/10/07 05:28:12;;;;;;;10.77;4.57;;;;;;;10.03;71.83;95012.72;5145004;27;20301;-73
2022/10/07 05:30:38;;;;;;;13.65;5.07;;;;;;;10.16;71.71;95005.91;5145205;27;20039;-74
2022/10/07 05:33:04;;;;;;;10.70;4.03;;;;;;;10.17;71.33;95002.16;5145052;27;20105;-74
2022/10/07 05:35:30;;;;;;;7.43;3.40;;;;;;;10.24;71.16;95005.31;5144969;27;20072;-73
2022/10/07 05:37:56;;;;;;;9.20;4.35;;;;;;;10.31;71.15;95017.53;5145253;27;20213;-74
2022/10/07 05:40:21;;;;;;;10.82;4.35;;;;;;;10.39;70.92;95008.91;5144667;27;20031;-74
2022/10/07 05:42:48;;;;;;;7.95;3.38;;;;;;;10.46;70.95;95005.91;5145217;27;20128;-74
2022/10/07 05:45:14;;;;;;;10.13;3.50;;;;;;;10.56;70.65;95008.44;5145079;27;20246;-74
2022/10/07 05:47:39;;;;;;;10.18;4.15;;;;;;;10.59;70.65;95000.69;5145223;27;20065;-74
2022/10/07 05:50:05;;;;;;;7.45;3.50;;;;;;;10.66;70.50;94999.53;5144721;27;20019;-75
2022/10/07 05:52:31;;;;;;;12.10;4.53;;;;;;;10.78;70.35;95010.59;5144379;27;20023;-74
2022/10/07 05:54:56;;;;;;;5.38;3.72;;;;;;;10.86;69.80;95007.28;5144673;27;20035;-74
2022/10/07 05:57:22;;;;;;;9.82;4.30;;;;;;;10.97;68.73;95011.44;5126132;27;20250;-74
2022/10/07 05:59:48;;;;;;;5.30;3.35;;;;;;;11.12;67.79;95009.63;5144098;27;20022;-74
2022/10/07 06:02:15;;;;;;;13.07;4.05;;;;;;;11.23;67.29;95017.22;5144296;27;20019;-74
2022/10/07 06:04:42;;;;;;;6.22;4.03;;;;;;;11.33;67.04;95018.94;5144408;27;20019;-74
2022/10/07 06:07:08;;;;;;;7.95;3.03;;;;;;;11.45;65.53;95021.94;5144252;27;20019;-74
2022/10/07 06:15:02;;;;;;;8.30;4.05;;;;;;;11.68;64.71;95014.13;5143353;27;20025;-75
2022/10/07 06:17:27;;;;;;;20.30;4.88;;;;;;;11.79;63.69;95015.56;5144167;27;20274;-75
2022/10/07 06:19:53;;;;;;;13.40;3.63;;;;;;;11.87;63.75;95019.47;5144050;27;20064;-75
2022/10/07 06:22:18;;;;;;;9.10;3.00;;;;;;;11.95;62.38;95023.38;5143932;27;20019;-75
2022/10/07 06:24:44;;;;;;;11.93;3.83;;;;;;;11.96;62.51;95016.94;5143973;27;20225;-74
2022/10/07 06:27:09;;;;;;;14.68;3.83;;;;;;;11.93;63.55;95023.66;5143953;27;20042;-74
2022/10/07 06:29:35;;;;;;;11.55;4.13;;;;;;;12.08;63.77;95016.47;5143929;27;20062;-75
2022/10/07 06:32:00;;;;;;;9.07;3.83;;;;;;;12.17;63.85;95023.53;5143797;27;20034;-75
2022/10/07 06:34:26;;;;;;;15.90;3.55;;;;;;;12.16;63.46;95032.63;5143860;27;20304;-75
2022/10/07 06:36:52;;;;;;;15.85;3.33;;;;;;;12.18;63.93;95019.75;5143938;27;20019;-75
2022/10/07 06:39:17;;;;;;;10.55;3.25;;;;;;;12.14;62.82;95029.44;5143884;27;20035;-75
2022/10/07 06:41:43;;;;;;;13.20;3.28;;;;;;;12.13;63.10;95035.88;5143739;27;20329;-75
2022/10/07 06:44:08;;;;;;;8.65;3.58;;;;;;;12.19;62.68;95031.22;5143699;27;20090;-75
2022/10/07 06:46:34;;;;;;;7.68;4.00;;;;;;;12.28;63.14;95039.38;5143651;27;20031;-74
2022/10/07 06:48:59;;;;;;;17.05;4.18;;;;;;;12.31;63.30;95044.13;5143414;27;20031;-74
2022/10/07 06:51:25;;;;;;;10.02;4.85;;;;;;;12.36;62.92;95044.84;5143532;27;20388;-74
2022/10/07 06:53:52;;;;;;;12.48;4.85;;;;;;;12.43;63.21;95052.47;5143461;28;20026;-74
2022/10/07 06:56:17;;;;;;;19.77;5.25;;;;;;;12.51;63.11;95049.09;5143679;27;20280;-74
2022/10/07 06:58:43;;;;;;;9.75;4.60;;;;;;;12.55;62.50;95038.63;5143412;28;20031;-75
2022/10/07 07:01:09;;;;;;;10.60;4.97;;;;;;;12.62;61.52;95047.84;5143517;28;20035;-75
2022/10/07 07:03:34;;;;;;;17.85;5.55;;;;;;;12.72;60.19;95054.06;5143542;27;20015;-74
2022/10/07 07:06:00;;;;;;;8.68;4.38;;;;;;;12.78;60.34;95052.88;5143337;27;20022;-75
2022/10/07 07:08:28;;;;;;;20.33;4.28;;;;;;;12.86;60.54;95044.16;5143626;27;20132;-75
2022/10/07 07:10:54;;;;;;;10.05;4.43;;;;;;;12.89;60.33;95040.13;5125147;28;20247;-75
2022/10/07 07:13:19;;;;;;;15.70;5.18;;;;;;;12.99;60.59;95042.56;5143211;28;20019;-75
2022/10/07 07:15:58;;;;;;;31.77;5.65;;;;;;;13.11;61.01;95036.69;5143454;28;20104;-75
2022/10/07 07:18:24;;;;;;;23.60;5.78;;;;;;;13.23;60.47;95039.69;5143463;27;20015;-75
2022/10/07 07:20:50;;;;;;;23.00;4.10;;;;;;;13.36;59.54;95038.88;5143133;28;20078;-75
2022/10/07 07:23:16;;;;;;;23.38;4.50;;;;;;;13.47;58.91;95035.97;5143462;28;20038;-75
2022/10/07 07:25:45;;;;;;;7.88;4.00;;;;;;;13.52;58.43;95039.31;5143514;27;20022;-75
2022/10/07 07:28:13;;;;;;;11.73;5.05;;;;;;;13.61;58.82;95037.50;5147224;27;20018;-75
2022/10/07 07:30:39;;;;;;;14.48;4.95;;;;;;;13.77;59.04;95032.56;5147306;27;20038;-73
2022/10/07 07:33:05;;;;;;;13.95;4.75;;;;;;;13.88;58.33;95035.84;5147359;27;20102;-73
2022/10/07 07:35:31;;;;;;;15.88;3.72;;;;;;;13.99;57.68;95036.38;5147313;27;20095;-77
2022/10/07 07:37:58;;;;;;;10.50;4.25;;;;;;;14.10;56.92;95039.56;5147334;27;20015;-77
2022/10/07 07:40:25;;;;;;;21.17;4.80;;;;;;;14.22;56.67;95018.34;5147855;27;20090;-77
2022/10/07 07:42:51;;;;;;;14.05;4.50;;;;;;;14.34;56.38;95031.19;5147125;27;20027;-76
2022/10/07 07:45:17;;;;;;;19.65;4.90;;;;;;;14.49;56.15;95028.13;5146966;27;20084;-76
2022/10/07 07:47:43;;;;;;;14.13;4.70;;;;;;;14.58;55.54;95017.47;5147247;27;20026;-76
2022/10/07 07:50:09;;;;;;;13.73;3.95;;;;;;;14.71;54.85;95029.19;5147231;27;20063;-76
2022/10/07 07:52:34;;;;;;;16.17;5.35;;;;;;;14.82;54.71;95027.81;5146865;27;20019;-76
2022/10/07 07:55:01;;;;;;;17.02;4.32;;;;;;;14.90;54.50;95021.69;5146920;27;20202;-76
2022/10/07 07:57:27;;;;;;;14.05;4.82;;;;;;;15.02;53.35;95019.19;5146996;27;20047;-76
2022/10/07 07:59:54;;;;;;;19.17;4.00;;;;;;;15.11;51.81;95021.88;5146929;27;20049;-76
2022/10/07 08:02:20;;;;;;;14.27;4.07;;;;;;;15.21;51.50;95013.53;5146748;27;20077;-75
2022/10/07 08:04:45;;;;;;;13.85;3.10;;;;;;;15.33;50.81;95015.59;5146788;27;20038;-75
2022/10/07 08:07:11;;;;;;;9.77;2.90;;;;;;;15.43;50.18;95001.06;5146720;27;20069;-75
2022/10/07 08:09:38;;;;;;;6.90;3.00;;;;;;;15.56;47.99;95007.38;5146528;27;20229;-73
2022/10/07 08:12:04;;;;;;;6.68;2.80;;;;;;;15.67;47.41;95000.56;5146535;27;20023;-73
2022/10/07 08:14:30;;;;;;;13.48;2.70;;;;;;;15.80;46.88;94994.28;5145499;27;20058;-73
2022/10/07 08:16:57;;;;;;;4.50;1.85;;;;;;;15.89;45.52;95004.22;5146050;27;20019;-74
2022/10/07 08:19:24;;;;;;;8.40;2.05;;;;;;;15.96;45.64;94997.28;5146536;27;20030;-73
2022/10/07 08:21:50;;;;;;;9.98;1.80;;;;;;;16.03;44.97;94992.19;5146508;27;20023;-73
2022/10/07 08:24:16;;;;;;;7.15;1.88;;;;;;;16.12;44.67;94994.06;5146228;27;20046;-73
2022/10/07 08:26:41;;;;;;;8.75;2.00;;;;;;;16.18;44.62;94988.22;5146230;27;20023;-73
2022/10/07 08:29:07;;;;;;;13.25;2.03;;;;;;;16.29;43.69;94987.84;5146243;27;20035;-73
2022/10/07 08:31:32;;;;;;;13.88;3.03;;;;;;;16.37;44.56;94995.13;5145071;27;20043;-74
2022/10/07 08:34:00;;;;;;;8.15;2.38;;;;;;;16.45;44.24;94984.31;5144795;27;20061;-74
2022/10/07 08:36:27;;;;;;;5.72;1.70;;;;;;;16.47;43.88;94984.00;5144971;27;20049;-74
2022/10/07 08:38:53;;;;;;;7.50;1.92;;;;;;;16.53;43.44;94981.91;5144194;27;20015;-74
2022/10/07 08:41:34;;;;;;;11.90;2.25;;;;;;;16.52;42.83;94983.81;5145139;27;20377;-74
2022/10/07 08:44:16;;;;;;;7.18;1.80;;;;;;;16.61;43.97;94978.41;5145006;27;20026;-74
2022/10/07 08:47:25;;;;;;;8.27;2.20;;;;;;;16.70;43.17;94970.28;5145670;27;20053;-74
2022/10/07 08:50:28;;;;;;;4.05;1.92;;;;;;;16.71;43.12;94971.84;5117405;27;20106;-74
2022/10/07 08:53:05;;;;;;;13.05;2.03;;;;;;;16.81;43.03;94968.81;5142588;27;20050;-74
2022/10/07 08:56:13;;;;;;;3.60;1.83;;;;;;;16.91;43.04;94973.03;5145816;27;20023;-74
2022/10/07 09:02:25;;;;;;;8.10;2.47;;;;;;;17.01;42.81;94961.88;5145817;27;20029;-75
2022/10/07 09:04:53;;;;;;;6.22;2.67;;;;;;;17.07;42.63;94959.81;5145054;27;20076;-75
2022/10/07 09:07:33;;;;;;;7.65;2.00;;;;;;;17.12;42.40;94952.31;5144020;27;20035;-75
2022/10/07 09:10:31;;;;;;;7.97;2.13;;;;;;;17.21;41.71;94953.03;5145179;27;20030;-75
2022/10/07 09:13:09;;;;;;;6.10;2.35;;;;;;;17.29;42.05;94954.09;5145525;27;20031;-75
2022/10/07 09:15:42;;;;;;;19.17;3.13;;;;;;;17.33;42.15;94948.84;5145534;27;20067;-75
2022/10/07 09:18:28;;;;;;;12.65;2.88;;;;;;;17.34;41.93;94943.13;5144681;27;20027;-76
2022/10/07 09:20:55;;;;;;;10.07;2.03;;;;;;;17.37;42.33;94938.97;5143536;27;20019;-75
2022/10/07 09:23:29;;;;;;;9.13;2.70;;;;;;;17.43;42.30;94938.44;5143413;27;20356;-75
2022/10/07 09:25:54;;;;;;;9.60;2.22;;;;;;;17.57;41.08;94937.38;5143766;27;20027;-76
2022/10/07 09:28:27;;;;;;;20.08;2.30;;;;;;;17.50;40.44;94937.13;5143421;27;20030;-75
2022/10/07 09:30:52;;;;;;;12.80;2.00;;;;;;;17.56;41.25;94935.81;5143405;27;20091;-75
2022/10/07 09:33:21;;;;;;;6.50;2.25;;;;;;;17.60;41.19;94937.50;5143626;27;20350;-75
2022/10/07 09:35:54;;;;;;;8.63;2.00;;;;;;;17.65;40.42;94939.22;5144969;27;20470;-75
2022/10/07 09:38:29;;;;;;;8.57;1.83;;;;;;;17.73;39.93;94940.25;5144940;27;20209;-75
2022/10/07 09:41:15;;;;;;;4.03;2.08;;;;;;;17.79;39.94;94937.03;5144934;27;20030;-75
2022/10/07 09:44:15;;;;;;;12.05;3.10;;;;;;;17.89;39.20;94935.84;5144943;27;20082;-75
2022/10/07 09:47:10;;;;;;;19.30;3.20;;;;;;;17.90;40.96;94921.22;5144820;27;20321;-75
2022/10/07 09:49:41;;;;;;;11.38;2.42;;;;;;;17.91;40.67;94920.13;5126198;27;20217;-75
2022/10/07 09:52:13;;;;;;;7.47;2.20;;;;;;;18.04;39.96;94920.94;5144681;27;20035;-75
2022/10/07 09:54:39;;;;;;;12.20;3.55;;;;;;;18.11;39.19;94923.06;5144372;27;20031;-75
2022/10/07 09:57:05;;;;;;;9.02;2.45;;;;;;;18.00;39.44;94917.31;5144290;27;20448;-75
2022/10/07 09:59:34;;;;;;;13.13;2.40;;;;;;;17.93;39.62;94919.75;5144599;27;20030;-75
2022/10/07 10:02:12;;;;;;;6.20;2.42;;;;;;;17.96;38.26;94913.72;5144496;27;20222;-75
2022/10/07 10:04:49;;;;;;;4.25;1.92;;;;;;;17.97;38.73;94908.00;5144339;27;20019;-75
2022/10/07 10:07:33;;;;;;;6.65;2.10;;;;;;;17.91;39.48;94909.34;5144364;27;20023;-75
2022/10/07 10:10:22;;;;;;;7.45;2.20;;;;;;;17.96;38.76;94901.00;5144264;27;20023;-75
2022/10/07 10:12:50;;;;;;;8.55;3.03;;;;;;;18.08;38.21;94894.84;5144219;27;20050;-75
2022/10/07 10:15:22;;;;;;;8.13;2.15;;;;;;;18.12;37.85;94890.38;5144329;27;20046;-75
2022/10/07 10:17:48;;;;;;;20.50;2.60;;;;;;;18.21;37.88;94887.56;5144185;27;20031;-75
2022/10/07 10:20:23;;;;;;;6.05;2.22;;;;;;;18.32;36.85;94887.88;5143976;27;20033;-75
2022/10/07 10:22:49;;;;;;;6.45;2.20;;;;;;;18.35;37.36;94884.53;5144193;27;20049;-75
2022/10/07 10:28:53;;;;;;;5.03;1.90;;;;;;;18.33;37.73;94876.00;5143810;27;20147;-75
2022/10/07 10:31:37;;;;;;;4.28;1.80;;;;;;;18.26;37.30;94876.56;5143801;27;20034;-75
2022/10/07 10:34:34;;;;;;;3.85;1.83;;;;;;;18.35;37.21;94871.03;5143839;27;20093;-76
2022/10/07 10:37:15;;;;;;;3.88;2.17;;;;;;;18.38;36.23;94873.06;5137775;27;20054;-75
2022/10/07 10:39:58;;;;;;;6.95;1.90;;;;;;;18.34;37.24;94872.16;5143937;27;20030;-75
2022/10/07 10:42:53;;;;;;;11.52;2.83;;;;;;;18.49;37.23;94868.78;5143973;27;20059;-75
2022/10/07 10:45:29;;;;;;;6.05;2.03;;;;;;;18.60;36.24;94871.81;5143962;27;20094;-76
2022/10/07 10:48:30;;;;;;;10.07;2.35;;;;;;;18.67;35.79;94863.94;5143983;27;20054;-75
2022/10/07 10:51:20;;;;;;;5.15;1.98;;;;;;;18.81;36.23;94856.28;5143710;27;20019;-75
2022/10/07 10:54:00;;;;;;;11.50;1.70;;;;;;;18.80;35.61;94854.69;5143862;27;20217;-75
2022/10/07 10:56:34;;;;;;;11.35;1.90;;;;;;;18.97;35.58;94855.56;5143887;27;20094;-75
2022/10/07 10:59:28;;;;;;;13.70;2.05;;;;;;;19.01;36.85;94845.63;5143523;27;20049;-75
2022/10/07 11:02:13;;;;;;;3.90;1.80;;;;;;;19.10;36.65;94848.22;5145632;27;20317;-75
2022/10/07 11:04:49;;;;;;;4.68;1.83;;;;;;;19.01;35.23;94841.03;5148184;27;20030;-76
2022/10/07 11:07:27;;;;;;;5.03;2.10;;;;;;;19.08;34.68;94835.06;5148250;27;20195;-76
2022/10/07 11:10:01;;;;;;;5.93;1.75;;;;;;;19.23;35.11;94834.34;5148064;27;20031;-75
2022/10/07 11:12:32;;;;;;;6.40;2.17;;;;;;;19.37;35.01;94828.50;5147775;27;20225;-75
2022/10/07 11:15:12;;;;;;;3.67;1.53;;;;;;;19.52;34.06;94823.47;5147738;27;20019;-73
2022/10/07 11:17:38;;;;;;;6.25;1.42;;;;;;;19.64;35.68;94823.41;5147440;27;20216;-75
2022/10/07 11:20:26;;;;;;;6.22;1.70;;;;;;;19.66;35.70;94823.84;5147439;27;20026;-76
2022/10/07 11:22:59;;;;;;;3.53;1.88;;;;;;;19.66;34.19;94813.03;5147678;27;20011;-76
2022/10/07 11:25:43;;;;;;;4.35;1.50;;;;;;;19.76;34.94;94820.69;5147694;27;20235;-75
2022/10/07 11:28:26;;;;;;;2.72;1.40;;;;;;;19.79;34.14;94816.50;5147467;27;20217;-75
2022/10/07 11:31:22;;;;;;;8.73;1.65;;;;;;;19.74;35.72;94812.13;5147433;27;20043;-75
2022/10/07 11:34:27;;;;;;;4.15;2.25;;;;;;;19.79;34.86;94814.56;5147331;27;20034;-75
2022/10/07 11:37:01;;;;;;;8.35;1.88;;;;;;;19.71;33.69;94812.81;5147424;27;20067;-74
2022/10/07 11:39:27;;;;;;;3.10;1.50;;;;;;;19.68;34.89;94807.28;5147443;27;20023;-74
2022/10/07 11:41:53;;;;;;;7.28;1.73;;;;;;;19.58;34.35;94803.97;5147041;27;20038;-75
2022/10/07 11:44:46;;;;;;;4.90;3.05;;;;;;;19.62;35.51;94794.03;5147173;27;20044;-74
2022/10/07 11:47:19;;;;;;;6.82;3.10;;;;;;;19.73;36.77;94802.44;5147237;27;20027;-74
2022/10/07 11:50:20;;;;;;;5.70;1.75;;;;;;;19.90;36.22;94793.19;5147105;27;20317;-75
2022/10/07 11:52:48;;;;;;;4.85;1.52;;;;;;;19.90;35.18;94793.19;5103087;27;20046;-74
2022/10/07 11:55:32;;;;;;;6.47;1.83;;;;;;;19.98;35.13;94794.13;5146803;27;20019;-75
2022/10/07 11:58:00;;;;;;;5.43;1.80;;;;;;;20.13;35.48;94798.78;5146990;27;20048;-75
2022/10/07 12:00:26;;;;;;;4.70;1.42;;;;;;;20.24;34.15;94794.38;5147157;27;20015;-74
2022/10/07 12:02:54;;;;;;;5.18;1.40;;;;;;;20.36;34.49;94792.72;5146922;27;20038;-74
2022/10/07 12:05:34;;;;;;;5.22;1.75;;;;;;;20.43;33.71;94787.44;5146810;27;20258;-73
2022/10/07 12:08:00;;;;;;;9.25;1.88;;;;;;;20.58;34.64;94788.56;5146527;27;20388;-74